Time;durP1;ratioP1;P1;durP2;ratioP2;P2;SDS_P1;SDS_P2;PMS_P1;PMS_P2;Temp;Humidity;BMP_temperature;BMP_pressure;BME280_temperature;BME280_humidity;BME280_pressure;Samples;Min_cycle;Max_cycle;Signal;HPM_P1;HPM_P2
2023/03/13 00:01:13;;;;;;;1.42;1.20;;;;;;;9.18;100.00;100197.59;5048814;28;19921;-62
2023/03/13 00:03:38;;;;;;;1.25;1.00;;;;;;;9.17;100.00;100182.22;5037126;28;20033;-63
2023/03/13 00:06:03;;;;;;;1.55;1.13;;;;;;;9.16;100.00;100174.25;5029735;28;20088;-63
2023/03/13 00:08:29;;;;;;;1.50;1.10;;;;;;;9.12;100.00;100173.88;5046382;28;20379;-63
2023/03/13 00:10:54;;;;;;;1.27;1.08;;;;;;;9.15;100.00;100169.84;5049333;28;20487;-63
2023/03/13 00:13:20;;;;;;;1.30;1.13;;;;;;;9.08;100.00;100153.53;5047971;28;20025;-64
2023/03/13 00:15:45;;;;;;;1.50;1.20;;;;;;;9.08;100.00;100153.53;5049245;28;20529;-63
2023/03/13 00:18:10;;;;;;;1.67;1.20;;;;;;;9.06;100.00;100147.44;5048539;28;20037;-63
2023/03/13 00:20:36;;;;;;;1.48;1.15;;;;;;;9.04;100.00;100146.84;5049041;28;20048;-63
2023/03/13 00:23:01;;;;;;;1.80;1.17;;;;;;;9.02;100.00;100138.88;5047677;28;20549;-63
2023/03/13 00:25:26;;;;;;;1.30;1.20;;;;;;;8.96;100.00;100130.75;5047491;28;20029;-63
2023/03/13 00:27:51;;;;;;;1.45;1.20;;;;;;;8.92;100.00;100132.31;5047979;28;20547;-62
2023/03/13 00:30:17;;;;;;;1.60;1.15;;;;;;;8.93;100.00;100128.50;5049080;28;20147;-63
2023/03/13 00:32:45;;;;;;;1.50;1.20;;;;;;;8.88;100.00;100120.19;5032499;28;20034;-63
2023/03/13 00:35:10;;;;;;;1.55;1.10;;;;;;;8.81;100.00;100115.63;5028922;28;20061;-63
2023/03/13 00:37:35;;;;;;;1.85;1.20;;;;;;;8.78;100.00;100102.44;5044913;28;20419;-63
2023/03/13 00:40:01;;;;;;;1.77;1.25;;;;;;;8.73;100.00;100096.00;5048782;28;20029;-63
2023/03/13 00:42:26;;;;;;;1.65;1.20;;;;;;;8.73;100.00;100099.56;5047035;28;20032;-63
2023/03/13 00:44:51;;;;;;;1.42;1.10;;;;;;;8.72;100.00;100084.22;5048292;28;20096;-63
2023/03/13 00:47:17;;;;;;;1.60;1.20;;;;;;;8.70;100.00;100086.34;5048728;28;20036;-62
2023/03/13 00:49:42;;;;;;;1.50;1.20;;;;;;;8.71;100.00;100082.53;5047893;28;20114;-63
2023/03/13 00:52:07;;;;;;;2.05;1.30;;;;;;;8.70;100.00;100074.56;5047583;28;20036;-63
2023/03/13 00:54:33;;;;;;;1.40;1.05;;;;;;;8.67;100.00;100064.94;5047391;28;20549;-63
2023/03/13 00:56:58;;;;;;;1.63;1.20;;;;;;;8.72;100.00;100059.59;5048770;28;20112;-62
2023/03/13 00:59:23;;;;;;;1.40;1.10;;;;;;;8.73;100.00;100063.97;5039244;28;20487;-63
2023/03/13 01:01:49;;;;;;;1.75;1.30;;;;;;;8.71;100.00;100054.31;5049021;28;20048;-62
2023/03/13 01:04:14;;;;;;;1.70;1.20;;;;;;;8.72;100.00;100045.06;5047604;28;20024;-63
2023/03/13 01:06:41;;;;;;;1.40;1.05;;;;;;;8.68;100.00;100036.50;5045840;28;20045;-63
2023/03/13 01:09:08;;;;;;;1.40;1.20;;;;;;;8.70;100.00;100036.25;5028246;28;20032;-63
2023/03/13 01:11:36;;;;;;;1.30;1.20;;;;;;;8.71;100.00;100035.16;5029819;28;20040;-64
2023/03/13 01:14:04;;;;;;;1.85;1.15;;;;;;;8.70;100.00;100026.13;5047907;28;20031;-63
2023/03/13 01:16:31;;;;;;;1.90;1.20;;;;;;;8.69;100.00;100018.97;5047890;28;20447;-62
2023/03/13 01:19:03;;;;;;;1.30;1.20;;;;;;;8.73;100.00;100020.19;5047898;28;20025;-62
2023/03/13 01:21:29;;;;;;;1.10;1.00;;;;;;;8.72;100.00;100010.31;5047182;28;20032;-63
2023/03/13 01:23:55;;;;;;;1.23;1.00;;;;;;;8.76;100.00;99999.69;5045622;28;20603;-63
2023/03/13 01:26:21;;;;;;;1.35;1.10;;;;;;;8.79;100.00;99991.00;5047429;28;20103;-63
2023/03/13 01:28:46;;;;;;;1.40;1.00;;;;;;;8.86;100.00;99996.34;5047127;28;20037;-63
2023/03/13 01:31:23;;;;;;;1.20;1.10;;;;;;;8.87;100.00;99987.06;5048082;28;20025;-63
2023/03/13 01:33:53;;;;;;;1.23;1.13;;;;;;;8.91;100.00;99966.34;5046929;28;20044;-63
2023/03/13 01:36:19;;;;;;;1.58;1.10;;;;;;;8.94;100.00;99979.56;5046336;28;20048;-64
2023/03/13 01:38:51;;;;;;;1.30;1.00;;;;;;;8.94;100.00;99980.38;5046584;28;20029;-63
2023/03/13 01:41:17;;;;;;;1.05;0.95;;;;;;;9.00;100.00;99967.63;5047554;28;20029;-63
2023/03/13 01:43:43;;;;;;;1.17;1.08;;;;;;;9.02;100.00;99963.59;5046262;28;20029;-63
2023/03/13 01:46:18;;;;;;;0.80;0.80;;;;;;;9.10;100.00;99952.22;5047645;28;20041;-63
2023/03/13 01:49:04;;;;;;;0.95;0.90;;;;;;;9.14;100.00;99941.63;5047094;28;20086;-63
2023/03/13 01:51:37;;;;;;;0.93;0.82;;;;;;;9.16;100.00;99936.72;5046984;28;20040;-63
2023/03/13 01:54:05;;;;;;;0.88;0.88;;;;;;;9.18;100.00;99934.59;5047735;28;20055;-62
2023/03/13 01:56:57;;;;;;;0.93;0.75;;;;;;;9.23;100.00;99922.91;5031189;28;20396;-63
2023/03/13 01:59:29;;;;;;;1.30;1.00;;;;;;;9.25;100.00;99921.56;5035853;28;20127;-62
2023/03/13 02:01:57;;;;;;;1.10;0.80;;;;;;;9.32;100.00;99914.03;5042394;28;20040;-63
2023/03/13 02:04:23;;;;;;;;;;;;;;;9.33;100.00;99904.75;5047640;28;20033;-64
2023/03/13 02:06:53;;;;;;;0.80;0.80;;;;;;;9.47;100.00;99894.28;5030896;28;20284;-63
2023/03/13 02:09:23;;;;;;;0.80;0.80;;;;;;;9.49;100.00;99883.09;5046081;28;20089;-63
2023/03/13 02:11:51;;;;;;;0.77;0.77;;;;;;;9.54;100.00;99878.53;5040744;28;20052;-63
2023/03/13 02:14:20;;;;;;;0.80;0.80;;;;;;;9.61;100.00;99870.16;5047475;28;20360;-62
2023/03/13 02:16:47;;;;;;;0.80;0.80;;;;;;;9.71;100.00;99872.22;5046100;28;20082;-63
2023/03/13 02:19:24;;;;;;;0.80;0.80;;;;;;;9.78;100.00;99871.00;5046892;28;20036;-63
2023/03/13 02:22:13;;;;;;;0.70;0.70;;;;;;;9.82;100.00;99852.94;5046391;28;20162;-63
2023/03/13 02:24:53;;;;;;;0.70;0.70;;;;;;;9.84;100.00;99839.00;5028612;28;20041;-63
2023/03/13 02:27:18;;;;;;;0.88;0.70;;;;;;;9.86;100.00;99823.94;5039839;28;20033;-63
2023/03/13 02:29:44;;;;;;;0.90;0.80;;;;;;;9.87;100.00;99820.09;5047247;28;20029;-63
2023/03/13 02:32:10;;;;;;;0.60;0.60;;;;;;;9.92;100.00;99810.28;5046592;28;20060;-63
2023/03/13 02:34:38;;;;;;;0.80;0.80;;;;;;;9.95;100.00;99815.28;5046589;28;20337;-63
2023/03/13 02:37:05;;;;;;;;;;;;;;;10.06;100.00;99812.44;5046329;28;20037;-63
2023/03/13 02:39:32;;;;;;;0.70;0.70;;;;;;;10.02;100.00;99815.94;5047402;28;19920;-63
2023/03/13 02:41:58;;;;;;;0.60;0.60;;;;;;;10.08;100.00;99821.22;5047180;28;20025;-63
2023/03/13 02:44:24;;;;;;;0.60;0.60;;;;;;;10.07;100.00;99825.06;5046221;28;20124;-63
2023/03/13 02:46:53;;;;;;;0.68;0.68;;;;;;;10.11;100.00;99812.50;5046357;28;20082;-63
2023/03/13 02:49:22;;;;;;;0.60;0.60;;;;;;;10.13;100.00;99818.56;5047247;28;20033;-63
2023/03/13 02:51:48;;;;;;;0.60;0.60;;;;;;;10.26;100.00;99811.91;5045335;28;20360;-63
2023/03/13 02:54:21;;;;;;;0.60;0.60;;;;;;;10.20;100.00;99815.66;5046946;28;20029;-63
2023/03/13 02:56:50;;;;;;;0.60;0.60;;;;;;;10.25;100.00;99802.03;5046624;28;20522;-63
2023/03/13 02:59:16;;;;;;;0.60;0.60;;;;;;;10.33;100.00;99829.00;5046443;28;20029;-63
2023/03/13 03:01:41;;;;;;;0.65;0.65;;;;;;;10.34;100.00;99813.38;5043927;28;20021;-63
2023/03/13 03:04:06;;;;;;;0.57;0.57;;;;;;;10.36;100.00;99811.22;5045699;28;20037;-63
2023/03/13 03:06:32;;;;;;;0.60;0.60;;;;;;;10.34;100.00;99805.13;5045903;28;20457;-63
2023/03/13 03:08:57;;;;;;;0.70;0.70;;;;;;;10.37;100.00;99813.72;5047029;28;20048;-62
2023/03/13 03:11:22;;;;;;;0.70;0.70;;;;;;;10.41;100.00;99815.94;5046339;28;20021;-63
2023/03/13 03:13:47;;;;;;;0.73;0.65;;;;;;;10.41;100.00;99802.22;5045486;28;20060;-62
2023/03/13 03:16:17;;;;;;;0.80;0.80;;;;;;;10.41;100.00;99799.47;5046983;28;20029;-63
2023/03/13 03:18:42;;;;;;;0.95;0.70;;;;;;;10.41;100.00;99800.31;5047191;28;20108;-63
2023/03/13 03:21:08;;;;;;;0.55;0.55;;;;;;;10.49;100.00;99796.28;5034983;28;20108;-63
2023/03/13 03:23:33;;;;;;;0.60;0.60;;;;;;;10.49;100.00;99790.78;5049503;28;20717;-63
2023/03/13 03:25:59;;;;;;;0.60;0.60;;;;;;;10.48;100.00;99808.34;5050402;28;20031;-63
2023/03/13 03:28:24;;;;;;;0.70;0.70;;;;;;;10.54;100.00;99807.31;5049138;28;20033;-62
2023/03/13 03:30:52;;;;;;;0.60;0.60;;;;;;;10.55;100.00;99800.75;5049278;28;20044;-63
2023/03/13 03:33:17;;;;;;;0.60;0.60;;;;;;;10.55;100.00;99787.88;5049524;28;20020;-65
2023/03/13 03:35:42;;;;;;;0.60;0.60;;;;;;;10.56;100.00;99802.41;5049311;28;20476;-63
2023/03/13 03:38:08;;;;;;;0.52;0.52;;;;;;;10.68;100.00;99789.38;5049124;28;20037;-63
2023/03/13 03:40:33;;;;;;;0.60;0.60;;;;;;;10.62;100.00;99798.63;5049108;28;20036;-64
2023/03/13 03:42:58;;;;;;;0.60;0.60;;;;;;;10.65;100.00;99789.91;5049450;28;20043;-63
2023/03/13 03:45:23;;;;;;;0.50;0.50;;;;;;;10.69;100.00;99787.44;5049500;28;20486;-63
2023/03/13 03:47:49;;;;;;;0.60;0.60;;;;;;;10.68;100.00;99783.06;5047464;28;20036;-63
2023/03/13 03:50:14;;;;;;;0.50;0.50;;;;;;;10.68;100.00;99792.13;5047952;28;20510;-63
2023/03/13 03:52:40;;;;;;;0.50;0.50;;;;;;;10.64;100.00;99799.19;5048413;28;20387;-63
2023/03/13 03:55:05;;;;;;;0.50;0.50;;;;;;;10.67;100.00;99804.19;5049010;28;20111;-63
2023/03/13 03:57:30;;;;;;;0.50;0.50;;;;;;;10.76;100.00;99796.34;5048323;28;20749;-63
2023/03/13 03:59:56;;;;;;;0.60;0.60;;;;;;;10.75;100.00;99791.94;5049479;28;20017;-63
2023/03/13 04:02:21;;;;;;;0.60;0.60;;;;;;;10.80;100.00;99787.31;5049252;28;20033;-63
2023/03/13 04:04:46;;;;;;;0.50;0.50;;;;;;;10.76;100.00;99779.84;5048461;28;20041;-63
2023/03/13 04:07:11;;;;;;;0.55;0.55;;;;;;;10.80;100.00;99786.50;5034537;28;20087;-63
2023/03/13 04:09:37;;;;;;;0.50;0.50;;;;;;;10.84;100.00;99777.47;5046922;28;20052;-63
2023/03/13 04:12:02;;;;;;;0.50;0.50;;;;;;;10.84;100.00;99780.19;5049180;28;20066;-63
2023/03/13 04:14:27;;;;;;;0.50;0.50;;;;;;;10.88;100.00;99773.09;5048418;28;20029;-63
2023/03/13 04:16:52;;;;;;;0.68;0.68;;;;;;;10.88;100.00;99775.84;5049262;28;20483;-63
2023/03/13 04:19:18;;;;;;;0.60;0.60;;;;;;;10.96;100.00;99771.81;5048106;28;20078;-63
2023/03/13 04:21:43;;;;;;;0.50;0.50;;;;;;;10.93;100.00;99764.09;5047278;28;20032;-63
2023/03/13 04:24:08;;;;;;;0.50;0.50;;;;;;;10.98;100.00;99764.13;5049668;28;20048;-62
2023/03/13 04:26:34;;;;;;;0.60;0.60;;;;;;;11.02;100.00;99761.72;5048986;28;20177;-63
2023/03/13 04:28:59;;;;;;;0.65;0.65;;;;;;;11.02;100.00;99747.97;5047174;28;20036;-63
2023/03/13 04:31:24;;;;;;;0.60;0.60;;;;;;;11.07;100.00;99734.28;5041719;28;20482;-63
2023/03/13 04:33:49;;;;;;;0.50;0.50;;;;;;;11.18;100.00;99736.03;5047701;28;20021;-63
2023/03/13 04:36:15;;;;;;;0.60;0.60;;;;;;;11.22;100.00;99739.09;5047671;28;20049;-63
2023/03/13 04:38:40;;;;;;;0.50;0.50;;;;;;;11.21;100.00;99730.00;5039657;28;20038;-63
2023/03/13 04:41:05;;;;;;;0.50;0.50;;;;;;;11.24;100.00;99718.47;5041222;28;20036;-64
2023/03/13 04:43:30;;;;;;;0.50;0.50;;;;;;;11.33;100.00;99735.31;5048035;28;20025;-63
2023/03/13 04:45:56;;;;;;;0.50;0.50;;;;;;;11.37;100.00;99719.97;5047619;28;20037;-63
2023/03/13 04:48:21;;;;;;;0.50;0.50;;;;;;;11.36;100.00;99716.38;5046945;28;20443;-63
2023/03/13 04:50:47;;;;;;;0.50;0.50;;;;;;;11.40;100.00;99713.91;5031148;28;20037;-63
2023/03/13 04:53:13;;;;;;;0.50;0.50;;;;;;;11.40;100.00;99716.66;5047639;28;20036;-63
2023/03/13 04:55:38;;;;;;;0.50;0.50;;;;;;;11.49;100.00;99704.09;5048245;28;20062;-63
2023/03/13 04:58:04;;;;;;;0.55;0.50;;;;;;;11.49;100.00;99715.09;5048255;28;20029;-63
2023/03/13 05:00:29;;;;;;;0.57;0.57;;;;;;;11.44;100.00;99718.63;5048520;28;20464;-63
2023/03/13 05:02:54;;;;;;;0.50;0.50;;;;;;;11.47;100.00;99713.72;5047421;28;20036;-63
2023/03/13 05:05:20;;;;;;;0.50;0.50;;;;;;;11.48;100.00;99698.88;5048072;28;20036;-63
2023/03/13 05:07:45;;;;;;;0.50;0.50;;;;;;;11.50;100.00;99708.50;5047125;28;20099;-63
2023/03/13 05:10:10;;;;;;;0.50;0.50;;;;;;;11.64;100.00;99690.44;5048651;28;20029;-63
2023/03/13 05:12:35;;;;;;;0.50;0.50;;;;;;;11.68;100.00;99693.50;5046741;28;20032;-63
2023/03/13 05:15:01;;;;;;;0.50;0.50;;;;;;;11.75;100.00;99691.31;5048267;28;20105;-63
2023/03/13 05:17:26;;;;;;;0.47;0.47;;;;;;;11.73;100.00;99695.44;5047473;28;20028;-63
2023/03/13 05:19:51;;;;;;;0.50;0.50;;;;;;;11.75;100.00;99696.81;5038645;28;20033;-63
2023/03/13 05:22:17;;;;;;;0.40;0.40;;;;;;;11.75;100.00;99691.31;5039655;28;20024;-63
2023/03/13 05:24:42;;;;;;;0.50;0.50;;;;;;;11.82;100.00;99700.22;5046608;28;20028;-63
2023/03/13 05:27:07;;;;;;;0.50;0.50;;;;;;;11.78;100.00;99679.78;5039990;28;20036;-63
2023/03/13 05:29:32;;;;;;;0.50;0.50;;;;;;;11.88;100.00;99679.88;5034571;28;20079;-64
2023/03/13 05:31:58;;;;;;;0.50;0.50;;;;;;;11.85;100.00;99676.81;5046417;28;20074;-63
2023/03/13 05:34:23;;;;;;;0.40;0.40;;;;;;;11.87;100.00;99680.97;5046613;28;20387;-63
2023/03/13 05:36:48;;;;;;;0.50;0.50;;;;;;;11.94;100.00;99675.22;5044990;28;20029;-63
2023/03/13 05:39:14;;;;;;;0.40;0.40;;;;;;;11.91;100.00;99686.75;5047211;28;20113;-63
2023/03/13 05:41:39;;;;;;;0.50;0.50;;;;;;;12.06;100.00;99686.81;5047304;28;20109;-63
2023/03/13 05:44:04;;;;;;;0.50;0.50;;;;;;;12.07;100.00;99690.44;5046709;28;20538;-63
2023/03/13 05:46:30;;;;;;;0.40;0.40;;;;;;;12.06;100.00;99689.56;5047355;28;20551;-63
2023/03/13 05:48:55;;;;;;;0.50;0.50;;;;;;;12.04;100.00;99682.69;5046816;28;20033;-63
2023/03/13 05:51:20;;;;;;;0.40;0.40;;;;;;;12.06;100.00;99686.00;5040068;28;20041;-63
2023/03/13 05:53:46;;;;;;;0.50;0.50;;;;;;;12.03;100.00;99681.06;5040345;28;20558;-63
2023/03/13 05:56:11;;;;;;;0.50;0.50;;;;;;;12.05;100.00;99684.34;5046578;28;20043;-63
2023/03/13 05:58:36;;;;;;;0.68;0.68;;;;;;;12.09;100.00;99686.28;5046578;28;20025;-63
2023/03/13 06:01:07;;;;;;;0.50;0.50;;;;;;;12.16;100.00;99708.06;5046410;28;20036;-63
2023/03/13 06:03:32;;;;;;;0.45;0.45;;;;;;;12.17;100.00;99684.97;5046422;28;20468;-63
2023/03/13 06:05:58;;;;;;;0.47;0.47;;;;;;;12.12;100.00;99687.69;5043152;28;20076;-63
2023/03/13 06:08:23;;;;;;;0.60;0.60;;;;;;;12.13;100.00;99678.34;5033520;28;20086;-63
2023/03/13 06:10:49;;;;;;;0.55;0.50;;;;;;;12.11;100.00;99681.34;5047383;28;20029;-64
2023/03/13 06:13:14;;;;;;;0.60;0.60;;;;;;;12.13;100.00;99678.34;5046187;28;20036;-63
2023/03/13 06:15:39;;;;;;;0.50;0.50;;;;;;;12.15;100.00;99678.88;5047198;28;20021;-63
2023/03/13 06:18:04;;;;;;;0.50;0.50;;;;;;;12.26;100.00;99677.81;5047046;28;20033;-63
2023/03/13 06:20:30;;;;;;;0.50;0.50;;;;;;;12.32;100.00;99668.50;5046847;28;20100;-64
2023/03/13 06:22:55;;;;;;;0.60;0.60;;;;;;;12.34;100.00;99673.72;5040867;28;20120;-64
2023/03/13 06:25:21;;;;;;;0.68;0.65;;;;;;;12.27;100.00;99659.41;5046475;28;20734;-63
2023/03/13 06:27:46;;;;;;;0.50;0.50;;;;;;;12.23;100.00;99670.13;5045661;28;20025;-64
2023/03/13 06:30:12;;;;;;;0.40;0.40;;;;;;;12.25;100.00;99667.09;5046828;28;20036;-63
2023/03/13 06:32:37;;;;;;;0.50;0.50;;;;;;;12.25;100.00;99665.16;5046708;28;20033;-63
2023/03/13 06:35:03;;;;;;;0.52;0.43;;;;;;;12.21;100.00;99664.03;5046115;28;20049;-63
2023/03/13 06:37:29;;;;;;;0.47;0.47;;;;;;;12.26;100.00;99664.06;5045597;28;20115;-63
2023/03/13 06:39:54;;;;;;;0.68;0.52;;;;;;;12.41;100.00;99663.25;5043905;28;20112;-63
2023/03/13 06:42:19;;;;;;;0.50;0.50;;;;;;;12.37;100.00;99671.25;5030161;28;20036;-63
2023/03/13 06:44:45;;;;;;;0.50;0.50;;;;;;;12.35;100.00;99675.38;5046854;28;20087;-64
2023/03/13 06:47:10;;;;;;;0.50;0.50;;;;;;;12.34;100.00;99674.53;5046249;28;20111;-64
2023/03/13 06:49:35;;;;;;;0.40;0.40;;;;;;;12.32;100.00;99665.75;5046930;28;20029;-63
2023/03/13 06:52:00;;;;;;;0.50;0.50;;;;;;;12.35;100.00;99664.34;5046923;28;20071;-63
2023/03/13 06:54:26;;;;;;;0.40;0.40;;;;;;;12.40;100.00;99670.69;5051248;28;20033;-63
2023/03/13 06:56:52;;;;;;;0.60;0.60;;;;;;;12.44;100.00;99668.25;5049417;28;20032;-63
2023/03/13 06:59:17;;;;;;;0.68;0.60;;;;;;;12.45;100.00;99665.22;5050539;28;20033;-63
2023/03/13 07:01:42;;;;;;;0.60;0.60;;;;;;;12.51;100.00;99656.94;5048139;28;20029;-63
2023/03/13 07:04:11;;;;;;;0.43;0.43;;;;;;;12.54;100.00;99667.44;5047777;28;20033;-63
2023/03/13 07:06:36;;;;;;;0.60;0.60;;;;;;;12.52;100.00;99658.59;5046208;28;20111;-64
2023/03/13 07:09:03;;;;;;;0.50;0.50;;;;;;;12.58;100.00;99671.31;5048981;28;20124;-63
2023/03/13 07:11:29;;;;;;;0.60;0.55;;;;;;;12.57;100.00;99666.88;5047972;28;20044;-63
2023/03/13 07:13:55;;;;;;;0.70;0.60;;;;;;;12.68;100.00;99652.88;5035201;28;20024;-63
2023/03/13 07:16:20;;;;;;;0.60;0.50;;;;;;;12.61;100.00;99662.47;5050357;28;20028;-63
2023/03/13 07:18:46;;;;;;;0.50;0.50;;;;;;;12.65;100.00;99636.03;5049210;28;20075;-63
2023/03/13 07:21:12;;;;;;;0.70;0.57;;;;;;;12.68;100.00;99657.56;5048857;28;20452;-63
2023/03/13 07:23:38;;;;;;;0.50;0.50;;;;;;;12.68;100.00;99658.38;5049121;28;20028;-63
2023/03/13 07:26:06;;;;;;;0.60;0.60;;;;;;;12.78;100.00;99674.09;5049573;28;20021;-63
2023/03/13 07:28:32;;;;;;;0.50;0.50;;;;;;;12.77;100.00;99660.56;5049663;28;20025;-63
2023/03/13 07:31:14;;;;;;;0.50;0.50;;;;;;;12.84;100.00;99658.38;5049854;28;20021;-63
2023/03/13 07:33:40;;;;;;;0.63;0.50;;;;;;;12.77;100.00;99661.38;5049871;28;20024;-63
2023/03/13 07:36:06;;;;;;;0.50;0.50;;;;;;;12.78;100.00;99660.31;5049520;28;20435;-63
2023/03/13 07:38:32;;;;;;;0.70;0.60;;;;;;;12.79;100.00;99663.88;5049416;28;20060;-63
2023/03/13 07:40:57;;;;;;;0.50;0.50;;;;;;;12.87;100.00;99658.63;5050781;28;20056;-63
2023/03/13 07:43:24;;;;;;;0.63;0.60;;;;;;;12.87;100.00;99641.28;5049310;28;20539;-61
2023/03/13 07:45:58;;;;;;;0.50;0.50;;;;;;;12.94;100.00;99655.63;5049451;28;20047;-63
2023/03/13 07:48:29;;;;;;;0.50;0.50;;;;;;;12.91;100.00;99673.53;5048449;28;20647;-63
2023/03/13 07:50:56;;;;;;;0.50;0.50;;;;;;;12.89;100.00;99663.91;5047877;28;20431;-63
2023/03/13 07:53:22;;;;;;;0.60;0.60;;;;;;;12.93;100.00;99660.31;5049125;28;20621;-63
2023/03/13 07:56:02;;;;;;;0.50;0.50;;;;;;;13.07;100.00;99655.06;5049337;28;20029;-63
2023/03/13 07:58:30;;;;;;;0.60;0.60;;;;;;;12.87;100.00;99666.09;5049252;28;20029;-62
2023/03/13 08:00:55;;;;;;;;;;;;;;;12.95;100.00;99669.13;5049903;28;20025;-63
2023/03/13 08:03:22;;;;;;;0.50;0.50;;;;;;;12.87;100.00;99661.41;5048806;28;20329;-63
2023/03/13 08:05:55;;;;;;;0.45;0.45;;;;;;;12.89;100.00;99658.38;5048421;28;20462;-63
2023/03/13 08:08:21;;;;;;;0.50;0.50;;;;;;;12.97;100.00;99650.38;5049037;28;20985;-63
2023/03/13 08:10:46;;;;;;;0.63;0.60;;;;;;;13.14;100.00;99655.63;5049304;28;20033;-63
2023/03/13 08:13:11;;;;;;;0.57;0.50;;;;;;;13.23;100.00;99647.66;5047291;28;20043;-63
2023/03/13 08:15:36;;;;;;;0.43;0.43;;;;;;;13.29;100.00;99642.97;5049168;28;20091;-63
2023/03/13 08:18:02;;;;;;;0.70;0.50;;;;;;;13.32;100.00;99643.22;5049631;28;20033;-63
2023/03/13 08:20:27;;;;;;;0.50;0.50;;;;;;;13.37;100.00;99632.16;5048894;28;20738;-63
2023/03/13 08:22:54;;;;;;;0.52;0.50;;;;;;;13.40;100.00;99637.16;5048653;28;20017;-63
2023/03/13 08:25:19;;;;;;;0.52;0.52;;;;;;;13.35;100.00;99642.66;5049460;28;20028;-63
2023/03/13 08:27:45;;;;;;;0.50;0.50;;;;;;;13.34;100.00;99632.75;5047838;28;20025;-63
2023/03/13 08:30:11;;;;;;;0.50;0.50;;;;;;;13.37;100.00;99632.16;5047715;28;20033;-63
2023/03/13 08:32:36;;;;;;;0.73;0.70;;;;;;;13.48;100.00;99638.50;5048358;28;20039;-63
2023/03/13 08:35:03;;;;;;;0.70;0.60;;;;;;;13.42;100.00;99643.19;5048798;28;20127;-63
2023/03/13 08:37:29;;;;;;;0.60;0.50;;;;;;;13.40;100.00;99636.31;5048074;28;20175;-62
2023/03/13 08:39:55;;;;;;;0.40;0.40;;;;;;;13.38;100.00;99646.78;5048046;28;20061;-62
2023/03/13 08:42:24;;;;;;;0.90;0.57;;;;;;;13.25;100.00;99650.97;5048377;28;20017;-63
2023/03/13 08:44:49;;;;;;;0.57;0.57;;;;;;;13.08;100.00;99639.38;5046888;28;20478;-62
2023/03/13 08:47:14;;;;;;;0.52;0.50;;;;;;;13.05;100.00;99645.44;5047588;28;20068;-63
2023/03/13 08:49:40;;;;;;;0.50;0.50;;;;;;;12.97;100.00;99639.34;5048605;28;20040;-63
2023/03/13 08:52:05;;;;;;;0.50;0.50;;;;;;;12.95;100.00;99652.59;5048243;28;20028;-63
2023/03/13 08:54:32;;;;;;;0.40;0.40;;;;;;;12.78;100.00;99657.56;5043751;28;20419;-63
2023/03/13 08:56:58;;;;;;;0.60;0.60;;;;;;;12.69;100.00;99653.69;5045279;28;20045;-63
2023/03/13 08:59:24;;;;;;;0.50;0.50;;;;;;;12.63;100.00;99643.78;5044215;28;20041;-63
2023/03/13 09:01:49;;;;;;;0.60;0.60;;;;;;;12.79;100.00;99628.91;5047765;28;20036;-63
2023/03/13 09:04:14;;;;;;;0.40;0.40;;;;;;;12.92;100.00;99631.09;5046946;28;20033;-63
2023/03/13 09:06:39;;;;;;;0.50;0.50;;;;;;;13.32;100.00;99612.06;5045905;28;20033;-63
2023/03/13 09:09:06;;;;;;;0.50;0.50;;;;;;;13.76;100.00;99603.94;5045683;28;20465;-63
2023/03/13 09:11:34;;;;;;;0.40;0.40;;;;;;;13.88;100.00;99592.56;5046824;28;20045;-64
2023/03/13 09:14:00;;;;;;;0.50;0.50;;;;;;;13.95;100.00;99598.59;5048128;28;20028;-64
2023/03/13 09:16:28;;;;;;;0.40;0.40;;;;;;;14.08;98.83;99608.19;5046706;28;20029;-63
2023/03/13 09:18:55;;;;;;;0.40;0.40;;;;;;;14.67;95.41;99594.31;5047652;28;20036;-63
2023/03/13 09:21:23;;;;;;;0.40;0.40;;;;;;;16.11;89.90;99571.44;5043563;28;20495;-64
2023/03/13 09:23:48;;;;;;;0.38;0.38;;;;;;;17.27;80.44;99576.22;5033983;28;20032;-63
2023/03/13 09:26:15;;;;;;;0.50;0.50;;;;;;;18.84;74.33;99587.88;5047513;28;20044;-63
2023/03/13 09:28:41;;;;;;;0.30;0.30;;;;;;;19.63;69.29;99574.09;5044269;28;20056;-64
2023/03/13 09:31:15;;;;;;;0.32;0.30;;;;;;;19.59;68.68;99563.88;5046328;28;20087;-64
2023/03/13 09:33:42;;;;;;;0.40;0.40;;;;;;;19.44;67.55;99563.16;5045976;28;20021;-64
2023/03/13 09:36:08;;;;;;;0.40;0.40;;;;;;;19.86;66.84;99566.44;5042578;28;20056;-64
2023/03/13 09:38:34;;;;;;;0.40;0.40;;;;;;;20.56;63.93;99559.00;5045196;28;20044;-63
2023/03/13 09:41:06;;;;;;;0.35;0.35;;;;;;;20.93;63.00;99542.72;5039792;28;20013;-64
2023/03/13 09:43:56;;;;;;;0.38;0.38;;;;;;;20.66;63.53;99544.72;5040666;28;20028;-63
2023/03/13 09:46:26;;;;;;;0.40;0.40;;;;;;;21.16;61.36;99532.16;5045840;28;20052;-63
2023/03/13 09:48:58;;;;;;;0.30;0.30;;;;;;;21.19;60.86;99523.13;5041280;28;20033;-63
2023/03/13 09:51:28;;;;;;;0.30;0.30;;;;;;;21.44;59.76;99521.38;5045116;28;20024;-63
2023/03/13 09:54:27;;;;;;;0.30;0.30;;;;;;;20.37;61.71;99530.59;5043880;28;20021;-63
2023/03/13 09:57:02;;;;;;;0.30;0.30;;;;;;;19.47;65.56;99536.66;5031094;28;20072;-64
2023/03/13 09:59:42;;;;;;;0.40;0.40;;;;;;;18.35;67.88;99537.59;5046610;28;20053;-63
2023/03/13 10:02:24;;;;;;;0.38;0.38;;;;;;;17.57;72.72;99531.22;5047834;28;20083;-63
2023/03/13 10:04:59;;;;;;;0.43;0.35;;;;;;;17.05;72.38;99530.59;5046798;28;20048;-63
2023/03/13 10:07:24;;;;;;;0.60;0.40;;;;;;;17.09;73.95;99537.16;5042980;28;20443;-63
2023/03/13 10:09:50;;;;;;;0.30;0.30;;;;;;;17.08;73.08;99529.13;5047402;28;20032;-63
2023/03/13 10:12:23;;;;;;;0.38;0.38;;;;;;;16.72;74.95;99529.78;5036722;28;20029;-63
2023/03/13 10:15:26;;;;;;;0.40;0.40;;;;;;;17.68;72.80;99514.34;5029198;28;20033;-63
2023/03/13 10:17:51;;;;;;;0.30;0.30;;;;;;;18.25;67.02;99507.25;5043850;28;20940;-63
2023/03/13 10:20:24;;;;;;;0.35;0.35;;;;;;;18.11;67.07;99518.41;5045766;28;20104;-63
2023/03/13 10:22:57;;;;;;;0.30;0.30;;;;;;;17.95;67.52;99497.69;5044319;28;20057;-64
2023/03/13 10:25:37;;;;;;;0.30;0.30;;;;;;;18.11;68.47;99520.38;5046276;28;20372;-63
2023/03/13 10:28:03;;;;;;;0.30;0.30;;;;;;;18.32;65.72;99504.03;5050878;28;20031;-63
2023/03/13 10:30:34;;;;;;;0.40;0.40;;;;;;;18.36;66.42;99510.59;5052259;28;20115;-63
2023/03/13 10:33:05;;;;;;;0.30;0.30;;;;;;;18.29;66.17;99516.59;5051550;28;20035;-63
2023/03/13 10:35:34;;;;;;;0.28;0.28;;;;;;;17.75;67.22;99498.13;5050782;28;20052;-63
2023/03/13 10:38:09;;;;;;;0.30;0.30;;;;;;;17.47;69.33;99500.06;5049891;28;20131;-63
2023/03/13 10:40:34;;;;;;;0.40;0.40;;;;;;;17.64;69.60;99503.88;5034082;28;20033;-63
2023/03/13 10:43:17;;;;;;;0.30;0.30;;;;;;;17.77;69.89;99501.41;5050506;28;20044;-63
2023/03/13 10:45:42;;;;;;;0.30;0.30;;;;;;;18.50;65.85;99486.34;5051572;28;20029;-63
2023/03/13 10:48:18;;;;;;;0.30;0.30;;;;;;;19.60;63.05;99485.59;5049423;28;20048;-63
2023/03/13 10:50:46;;;;;;;0.38;0.38;;;;;;;20.07;58.82;99471.91;5048262;28;20039;-63
2023/03/13 10:53:32;;;;;;;0.38;0.30;;;;;;;19.54;62.05;99453.44;5043373;28;20036;-64
2023/03/13 10:56:12;;;;;;;0.30;0.30;;;;;;;18.63;66.04;99482.66;5050284;28;20025;-63
2023/03/13 10:58:43;;;;;;;0.30;0.30;;;;;;;18.06;66.89;99464.91;5049270;28;20056;-63
2023/03/13 11:01:22;;;;;;;0.20;0.20;;;;;;;18.48;68.00;99471.09;5049447;28;20037;-63
2023/03/13 11:03:51;;;;;;;0.30;0.30;;;;;;;19.57;63.72;99458.38;5040140;28;20032;-63
2023/03/13 11:06:40;;;;;;;0.35;0.30;;;;;;;19.76;63.45;99462.84;5047682;28;20025;-64
2023/03/13 11:09:15;;;;;;;0.30;0.30;;;;;;;18.99;64.77;99472.56;5048905;28;20037;-63
2023/03/13 11:11:47;;;;;;;0.20;0.20;;;;;;;18.77;65.53;99479.03;5047894;28;20037;-63
2023/03/13 11:14:15;;;;;;;0.30;0.30;;;;;;;18.48;67.45;99466.38;5048179;28;20028;-63
2023/03/13 11:16:46;;;;;;;;;;;;;;;19.36;65.79;99462.88;5050617;28;20083;-63
2023/03/13 11:19:37;;;;;;;0.30;0.30;;;;;;;19.05;65.41;99451.81;5048397;28;19913;-63
2023/03/13 11:22:27;;;;;;;0.35;0.35;;;;;;;19.65;62.07;99463.16;5047664;28;20135;-63
2023/03/13 11:25:02;;;;;;;0.30;0.30;;;;;;;19.29;62.79;99443.88;5041661;28;20167;-63
2023/03/13 11:27:34;;;;;;;0.40;0.30;;;;;;;18.67;63.84;99428.06;5049714;28;20112;-63
2023/03/13 11:30:14;;;;;;;0.30;0.30;;;;;;;18.17;65.59;99455.19;5046374;28;20041;-63
2023/03/13 11:32:47;;;;;;;0.30;0.30;;;;;;;17.49;67.42;99442.31;5043959;28;20111;-63